createdAt,value
2023-04-18T00:00:26.718Z,14.01
2023-04-18T00:03:30.091Z,13.98
2023-04-18T00:06:32.811Z,14.03
2023-04-18T00:09:35.153Z,13.83
2023-04-18T00:12:37.592Z,13.78
2023-04-18T00:15:41.826Z,13.82
2023-04-18T00:18:44.108Z,13.84
2023-04-18T00:21:47.161Z,13.84
2023-04-18T00:24:50.185Z,13.88
2023-04-18T00:27:52.504Z,13.85
2023-04-18T00:30:54.989Z,13.84
2023-04-18T00:33:57.358Z,13.83
2023-04-18T00:36:59.773Z,13.92
2023-04-18T00:40:02.143Z,13.74
2023-04-18T00:43:04.731Z,13.78
2023-04-18T00:46:08.262Z,13.71
2023-04-18T00:49:11.619Z,13.79
2023-04-18T00:52:14.397Z,13.74
2023-04-18T00:55:16.906Z,13.77
2023-04-18T00:58:19.321Z,13.79
2023-04-18T01:01:22.344Z,13.76
2023-04-18T01:04:24.767Z,13.67
2023-04-18T01:07:27.085Z,13.75
2023-04-18T01:10:32.526Z,13.61
2023-04-18T01:13:34.808Z,13.68
2023-04-18T01:16:39.104Z,13.64
2023-04-18T01:19:41.433Z,13.75
2023-04-18T01:22:43.812Z,13.67
2023-04-18T01:25:47.222Z,13.67
2023-04-18T01:28:49.604Z,13.65
2023-04-18T01:31:52.351Z,13.60
2023-04-18T01:34:54.681Z,13.64
2023-04-18T01:37:57.422Z,13.73
2023-04-18T01:40:59.794Z,13.53
2023-04-18T01:44:02.386Z,13.67
2023-04-18T01:47:04.761Z,13.65
2023-04-18T01:50:08.908Z,13.68
2023-04-18T01:53:11.179Z,13.63
2023-04-18T01:56:13.570Z,13.64
2023-04-18T01:59:16.025Z,13.61
2023-04-18T02:02:18.698Z,13.62
2023-04-18T02:05:21.388Z,13.65
2023-04-18T02:08:23.720Z,13.73
2023-04-18T02:11:26.304Z,13.65
2023-04-18T02:14:31.743Z,13.66
2023-04-18T02:17:36.855Z,13.61
2023-04-18T02:20:39.353Z,13.55
2023-04-18T02:23:41.622Z,13.62
2023-04-18T02:26:44.403Z,13.67
2023-04-18T02:29:46.722Z,13.60
2023-04-18T02:32:53.207Z,13.62
2023-04-18T02:35:59.230Z,13.63
2023-04-18T02:39:01.496Z,13.71
2023-04-18T02:42:03.811Z,13.62
2023-04-18T02:45:07.336Z,13.69
2023-04-18T02:48:10.298Z,13.68
2023-04-18T02:51:12.719Z,13.60
2023-04-18T02:54:15.190Z,13.60
2023-04-18T02:57:28.214Z,13.51
2023-04-18T03:00:53.478Z,13.45
2023-04-18T03:04:16.082Z,13.46
2023-04-18T03:07:21.235Z,13.47
2023-04-18T03:10:25.723Z,13.36
2023-04-18T03:13:28.030Z,13.36
2023-04-18T03:16:32.324Z,13.57
2023-04-18T03:19:35.296Z,13.84
2023-04-18T03:22:41.933Z,14.34
2023-04-18T03:25:44.402Z,14.80
2023-04-18T03:28:46.846Z,15.11
2023-04-18T03:31:49.495Z,15.24
2023-04-18T03:34:51.868Z,15.45
2023-04-18T03:37:54.340Z,15.47
2023-04-18T03:41:02.901Z,15.52
2023-04-18T03:44:09.446Z,15.52
2023-04-18T03:47:14.756Z,15.55
2023-04-18T03:50:19.780Z,15.54
2023-04-18T03:53:23.184Z,15.59
2023-04-18T03:56:25.949Z,15.30
2023-04-18T03:59:31.000Z,15.01
2023-04-18T04:02:33.524Z,14.68
2023-04-18T04:05:36.158Z,14.35
2023-04-18T04:08:38.550Z,14.25
2023-04-18T04:11:41.324Z,14.13
2023-04-18T04:14:46.509Z,14.14
2023-04-18T04:17:50.811Z,14.20
2023-04-18T04:20:53.812Z,14.03
2023-04-18T04:24:09.995Z,13.95
2023-04-18T04:27:18.873Z,13.94
2023-04-18T04:30:22.307Z,13.97
2023-04-18T04:33:25.719Z,13.99
2023-04-18T04:36:30.694Z,13.80
2023-04-18T04:39:34.760Z,13.85
2023-04-18T04:43:03.261Z,13.89
2023-04-18T04:46:13.787Z,13.94
2023-04-18T04:49:17.905Z,14.06
2023-04-18T04:52:20.526Z,14.09
2023-04-18T04:55:22.904Z,14.14
2023-04-18T04:58:26.003Z,14.15
2023-04-18T05:01:57.571Z,14.10
2023-04-18T05:04:59.893Z,14.24
2023-04-18T05:08:02.876Z,14.18
2023-04-18T05:11:05.548Z,13.99
2023-04-18T05:14:07.865Z,14.04
2023-04-18T05:17:10.204Z,14.12
2023-04-18T05:20:12.648Z,14.17
2023-04-18T05:23:15.091Z,14.15
2023-04-18T05:26:18.827Z,14.03
2023-04-18T05:29:21.173Z,14.02
2023-04-18T05:32:23.585Z,14.15
2023-04-18T05:35:26.260Z,14.26
2023-04-18T05:38:28.528Z,14.23
2023-04-18T05:41:30.816Z,14.42
2023-04-18T05:44:33.382Z,14.46
2023-04-18T05:47:35.749Z,14.50
2023-04-18T05:50:38.107Z,14.53
2023-04-18T05:53:40.381Z,14.67
2023-04-18T05:56:42.753Z,14.60
2023-04-18T05:59:45.090Z,14.58
2023-04-18T06:02:47.478Z,14.73
2023-04-18T06:05:49.858Z,14.73
2023-04-18T06:08:52.169Z,14.67
2023-04-18T06:11:54.522Z,14.80
2023-04-18T06:14:56.825Z,14.87
2023-04-18T06:18:00.338Z,14.77
2023-04-18T06:21:02.663Z,14.87
2023-04-18T06:24:05.084Z,14.95
2023-04-18T06:27:12.725Z,15.01
2023-04-18T06:30:23.009Z,15.07
2023-04-18T06:33:25.351Z,15.14
2023-04-18T06:36:27.678Z,15.31
2023-04-18T06:39:30.352Z,15.38
2023-04-18T06:42:32.609Z,15.53
2023-04-18T06:45:35.623Z,15.51
2023-04-18T06:48:37.912Z,15.58
2023-04-18T06:51:40.183Z,15.57
2023-04-18T06:54:42.545Z,15.56
2023-04-18T06:57:44.864Z,15.53
2023-04-18T07:00:51.870Z,15.77
2023-04-18T07:03:54.309Z,15.64
2023-04-18T07:06:56.701Z,15.79
2023-04-18T07:09:59.224Z,15.90
2023-04-18T07:13:01.796Z,15.87
2023-04-18T07:16:05.740Z,15.99
2023-04-18T07:19:08.421Z,15.97
2023-04-18T07:22:10.941Z,16.20
2023-04-18T07:25:13.241Z,16.31
2023-04-18T07:28:15.632Z,16.23
2023-04-18T07:31:21.026Z,16.32
2023-04-18T07:34:23.480Z,16.34
2023-04-18T07:37:26.238Z,16.39
2023-04-18T07:40:28.546Z,16.36
2023-04-18T07:43:30.856Z,16.25
2023-04-18T07:46:34.595Z,16.34
2023-04-18T07:49:37.557Z,16.48
2023-04-18T07:52:39.896Z,16.67
2023-04-18T07:55:43.346Z,16.97
2023-04-18T07:58:45.669Z,17.07
2023-04-18T08:01:47.992Z,17.16
2023-04-18T08:04:52.413Z,17.28
2023-04-18T08:07:54.931Z,17.57
2023-04-18T08:10:57.356Z,17.14
2023-04-18T08:13:59.811Z,16.97
2023-04-18T08:17:02.155Z,16.83
2023-04-18T08:20:07.484Z,16.87
2023-04-18T08:23:12.312Z,16.70
2023-04-18T08:26:15.193Z,16.57
2023-04-18T08:29:17.695Z,16.64
2023-04-18T08:32:20.023Z,16.78
2023-04-18T08:35:22.495Z,16.73
2023-04-18T08:38:24.784Z,16.95
2023-04-18T08:41:28.786Z,17.47
2023-04-18T08:44:31.379Z,18.11
2023-04-18T08:47:35.406Z,18.20
2023-04-18T08:50:37.787Z,18.69
2023-04-18T08:53:42.134Z,18.90
2023-04-18T08:56:45.207Z,18.50
2023-04-18T08:59:49.002Z,18.41
2023-04-18T09:02:57.260Z,18.47
2023-04-18T09:06:08.427Z,18.31
2023-04-18T09:09:10.756Z,18.82
2023-04-18T09:12:15.531Z,19.08
2023-04-18T09:15:20.897Z,19.35
2023-04-18T09:18:24.256Z,19.64
2023-04-18T09:21:28.057Z,20.03
2023-04-18T09:24:32.065Z,20.10
2023-04-18T09:27:34.898Z,20.19
2023-04-18T09:30:39.454Z,20.28
2023-04-18T09:33:52.828Z,19.73
2023-04-18T09:37:12.064Z,19.63
2023-04-18T09:40:21.523Z,19.32
2023-04-18T09:43:26.855Z,19.61
2023-04-18T09:46:31.768Z,19.49
2023-04-18T09:49:34.157Z,19.42
2023-04-18T09:52:41.069Z,19.50
2023-04-18T09:55:43.509Z,19.81
2023-04-18T09:58:47.673Z,20.78
2023-04-18T10:01:50.875Z,21.33
2023-04-18T10:04:54.535Z,20.98
2023-04-18T10:07:57.019Z,20.86
2023-04-18T10:10:59.515Z,20.36
2023-04-18T10:14:13.774Z,20.26
2023-04-18T10:17:16.367Z,20.74
2023-04-18T10:20:20.496Z,21.05
2023-04-18T10:23:43.234Z,21.17
2023-04-18T10:26:47.115Z,21.57
2023-04-18T10:29:51.280Z,21.79
2023-04-18T10:32:55.661Z,21.22
2023-04-18T10:35:58.866Z,21.03
2023-04-18T10:39:01.163Z,20.88
2023-04-18T10:42:03.575Z,20.52
2023-04-18T10:45:26.817Z,20.32
2023-04-18T10:48:32.926Z,19.70
2023-04-18T10:51:35.486Z,19.76
2023-04-18T10:54:40.755Z,19.85
2023-04-18T10:57:45.831Z,20.04
2023-04-18T11:00:50.352Z,20.59
2023-04-18T11:03:53.683Z,20.77
2023-04-18T11:06:57.604Z,20.84
2023-04-18T11:10:01.953Z,20.78
2023-04-18T11:13:06.596Z,20.60
2023-04-18T11:16:09.151Z,20.65
2023-04-18T11:19:21.879Z,20.05
2023-04-18T11:22:24.201Z,20.08
2023-04-18T11:25:37.310Z,20.12
2023-04-18T11:28:41.874Z,19.91
2023-04-18T11:31:51.405Z,20.24
2023-04-18T11:34:54.924Z,19.94
2023-04-18T11:37:57.236Z,19.99
2023-04-18T11:41:02.677Z,20.11
2023-04-18T11:44:06.485Z,20.11
2023-04-18T11:47:34.041Z,20.76
2023-04-18T11:50:37.708Z,20.71
2023-04-18T11:53:40.032Z,20.37
2023-04-18T11:56:50.276Z,20.48
2023-04-18T11:59:53.246Z,20.88
2023-04-18T12:02:55.702Z,21.53
2023-04-18T12:06:00.494Z,20.76
2023-04-18T12:09:03.012Z,20.46
2023-04-18T12:12:06.431Z,20.76
2023-04-18T12:15:13.883Z,21.10
2023-04-18T12:18:19.938Z,21.16
2023-04-18T12:21:22.272Z,21.04
2023-04-18T12:24:25.283Z,20.88
2023-04-18T12:27:47.135Z,21.04
2023-04-18T12:30:49.405Z,21.13
2023-04-18T12:33:51.753Z,21.30
2023-04-18T12:36:54.271Z,21.47
2023-04-18T12:39:56.670Z,21.10
2023-04-18T12:42:59.757Z,20.95
2023-04-18T12:46:03.394Z,20.84
2023-04-18T12:49:05.717Z,21.04
2023-04-18T12:52:08.278Z,21.16
2023-04-18T12:55:11.960Z,21.07
2023-04-18T12:58:18.643Z,21.11
2023-04-18T13:01:21.247Z,20.96
2023-04-18T13:04:23.817Z,20.92
2023-04-18T13:07:26.379Z,21.11
2023-04-18T13:10:28.874Z,21.02
2023-04-18T13:13:31.200Z,21.04
2023-04-18T13:16:33.677Z,21.11
2023-04-18T13:19:36.037Z,21.04
2023-04-18T13:22:39.161Z,21.15
2023-04-18T13:25:41.505Z,21.16
2023-04-18T13:28:43.785Z,21.21
2023-04-18T13:31:46.197Z,21.08
2023-04-18T13:34:48.845Z,21.23
2023-04-18T13:37:51.166Z,21.21
2023-04-18T13:41:04.444Z,21.00
2023-04-18T13:44:13.591Z,20.88
2023-04-18T13:47:16.347Z,20.55
2023-04-18T13:50:19.333Z,20.17
2023-04-18T13:53:21.774Z,19.88
2023-04-18T13:56:24.425Z,20.03
2023-04-18T13:59:27.131Z,20.18
2023-04-18T14:02:29.752Z,20.10
2023-04-18T14:05:32.203Z,20.07
2023-04-18T14:08:34.647Z,20.06
2023-04-18T14:11:38.528Z,20.09
2023-04-18T14:14:41.189Z,19.90
2023-04-18T14:17:45.454Z,19.69
2023-04-18T14:20:48.759Z,19.49
2023-04-18T14:23:52.385Z,19.55
2023-04-18T14:26:54.885Z,19.48
2023-04-18T14:29:57.322Z,19.39
2023-04-18T14:32:59.765Z,19.32
2023-04-18T14:36:02.827Z,19.31
2023-04-18T14:39:05.669Z,19.34
2023-04-18T14:42:08.022Z,19.21
2023-04-18T14:45:11.747Z,19.16
2023-04-18T14:48:14.185Z,19.04
2023-04-18T14:51:16.935Z,18.97
2023-04-18T14:54:19.365Z,18.92
2023-04-18T14:57:21.804Z,18.87
2023-04-18T15:00:27.148Z,18.95
2023-04-18T15:03:29.702Z,18.88
2023-04-18T15:06:32.739Z,18.63
2023-04-18T15:09:38.734Z,18.70
2023-04-18T15:12:41.958Z,18.71
2023-04-18T15:15:51.625Z,18.64
2023-04-18T15:18:53.926Z,18.62
2023-04-18T15:21:56.398Z,18.44
2023-04-18T15:24:58.718Z,18.46
2023-04-18T15:28:01.086Z,18.40
2023-04-18T15:31:06.016Z,18.35
2023-04-18T15:34:08.413Z,18.32
2023-04-18T15:37:10.913Z,18.35
2023-04-18T15:40:16.292Z,18.15
2023-04-18T15:43:18.700Z,18.21
2023-04-18T15:46:21.090Z,18.19
2023-04-18T15:49:23.619Z,18.07
2023-04-18T15:52:26.053Z,18.01
2023-04-18T15:55:28.519Z,18.20
2023-04-18T15:58:33.902Z,18.11
2023-04-18T16:01:36.746Z,18.03
2023-04-18T16:04:39.181Z,17.92
2023-04-18T16:07:42.653Z,17.92
2023-04-18T16:10:45.124Z,17.76
2023-04-18T16:13:47.888Z,17.88
2023-04-18T16:17:00.504Z,17.86
2023-04-18T16:20:03.756Z,17.71
2023-04-18T16:23:06.285Z,17.76
2023-04-18T16:26:09.042Z,17.84
2023-04-18T16:29:11.380Z,17.80
2023-04-18T16:32:13.973Z,17.83
2023-04-18T16:35:16.403Z,17.83
2023-04-18T16:38:18.783Z,17.83
2023-04-18T16:41:21.066Z,17.68
2023-04-18T16:44:23.498Z,17.63
2023-04-18T16:47:26.053Z,17.63
2023-04-18T16:50:28.409Z,17.49
2023-04-18T16:53:30.823Z,17.50
2023-04-18T16:56:34.118Z,17.41
2023-04-18T16:59:36.641Z,17.31
2023-04-18T17:02:42.922Z,17.34
2023-04-18T17:05:46.479Z,17.42
2023-04-18T17:08:49.204Z,17.14
2023-04-18T17:11:51.607Z,17.24
2023-04-18T17:14:53.926Z,17.22
2023-04-18T17:18:01.412Z,17.28
2023-04-18T17:21:04.092Z,17.13
2023-04-18T17:24:07.228Z,17.08
2023-04-18T17:30:32.120Z,16.95
2023-04-18T17:33:34.643Z,17.02
2023-04-18T17:36:38.846Z,16.82
2023-04-18T17:39:41.901Z,16.92
2023-04-18T17:42:44.492Z,16.85
2023-04-18T17:45:47.125Z,16.77
2023-04-18T17:48:49.772Z,16.53
2023-04-18T17:51:52.672Z,16.63
2023-04-18T17:54:57.216Z,16.65
2023-04-18T17:57:59.764Z,16.55
2023-04-18T18:01:02.362Z,16.26
2023-04-18T18:04:07.526Z,16.38
2023-04-18T18:07:13.298Z,16.49
2023-04-18T18:10:41.067Z,16.34
2023-04-18T18:13:50.937Z,16.24
2023-04-18T18:17:03.437Z,16.03
2023-04-18T18:20:15.321Z,16.18
2023-04-18T18:23:18.779Z,16.11
2023-04-18T18:26:21.477Z,16.08
2023-04-18T18:29:37.902Z,16.17
2023-04-18T18:32:40.759Z,15.97
2023-04-18T18:35:43.381Z,15.96
2023-04-18T18:39:48.137Z,16.21
2023-04-18T18:42:51.699Z,15.79
2023-04-18T18:45:54.306Z,15.96
2023-04-18T18:48:56.931Z,15.89
2023-04-18T18:51:59.480Z,15.81
2023-04-18T18:55:02.079Z,15.83
2023-04-18T18:58:07.924Z,15.98
2023-04-18T19:01:13.805Z,15.87
2023-04-18T19:04:16.606Z,15.80
2023-04-18T19:07:21.221Z,15.59
2023-04-18T19:10:25.990Z,15.51
2023-04-18T19:13:28.514Z,15.71
2023-04-18T19:16:30.958Z,15.39
2023-04-18T19:19:34.654Z,15.60
2023-04-18T19:22:38.035Z,15.49
2023-04-18T19:25:43.209Z,15.40
2023-04-18T19:28:48.089Z,15.70
2023-04-18T19:31:50.524Z,15.68
2023-04-18T19:34:52.966Z,15.57
2023-04-18T19:38:05.755Z,15.71
2023-04-18T19:41:18.954Z,15.50
2023-04-18T19:44:25.804Z,15.62
2023-04-18T19:47:32.253Z,15.66
2023-04-18T19:50:35.097Z,15.77
2023-04-18T19:53:37.485Z,15.72
2023-04-18T19:56:39.796Z,15.64
2023-04-18T19:59:42.291Z,15.66
2023-04-18T20:02:44.823Z,15.65
2023-04-18T20:05:47.330Z,15.51
2023-04-18T20:08:49.725Z,15.52
2023-04-18T20:11:54.356Z,15.48
2023-04-18T20:15:08.607Z,15.53
2023-04-18T20:18:14.988Z,15.50
2023-04-18T20:21:17.597Z,15.49
2023-04-18T20:24:21.176Z,15.66
2023-04-18T20:27:23.552Z,15.68
2023-04-18T20:30:26.505Z,15.49
2023-04-18T20:33:38.635Z,15.43
2023-04-18T20:36:53.240Z,15.28
2023-04-18T20:40:09.747Z,15.22
2023-04-18T20:43:12.753Z,15.16
2023-04-18T20:46:16.219Z,15.35
2023-04-18T20:49:18.663Z,15.19
2023-04-18T20:52:21.166Z,15.31
2023-04-18T20:55:23.464Z,15.25
2023-04-18T20:58:29.086Z,15.26
2023-04-18T21:01:32.880Z,15.35
2023-04-18T21:04:57.058Z,15.44
2023-04-18T21:08:08.852Z,15.43
2023-04-18T21:11:16.690Z,15.24
2023-04-18T21:14:22.965Z,15.22
2023-04-18T21:17:29.037Z,15.35
2023-04-18T21:20:45.697Z,15.42
2023-04-18T21:23:51.218Z,15.36
2023-04-18T21:27:07.975Z,15.15
2023-04-18T21:30:16.013Z,15.09
2023-04-18T21:36:50.330Z,15.08
2023-04-18T21:39:55.711Z,15.20
2023-04-18T21:43:12.176Z,15.33
2023-04-18T21:46:47.106Z,15.12
2023-04-18T21:50:11.403Z,15.20
2023-04-18T21:53:19.297Z,15.12
2023-04-18T21:56:31.505Z,15.13
2023-04-18T21:59:44.803Z,15.04
2023-04-18T22:06:08.411Z,14.82
2023-04-18T22:09:11.895Z,15.11
2023-04-18T22:12:14.430Z,15.08
2023-04-18T22:15:22.434Z,14.87
2023-04-18T22:18:28.494Z,14.99
2023-04-18T22:21:35.287Z,15.15
2023-04-18T22:24:47.372Z,14.99
2023-04-18T22:27:58.564Z,14.95
2023-04-18T22:31:06.875Z,15.04
2023-04-18T22:34:13.983Z,15.02
2023-04-18T22:37:21.627Z,15.02
2023-04-18T22:40:27.022Z,14.80
2023-04-18T22:43:35.260Z,14.81
2023-04-18T22:46:43.718Z,14.92
2023-04-18T22:53:05.905Z,15.02
2023-04-18T22:56:16.056Z,15.03
2023-04-18T22:59:32.490Z,14.81
2023-04-18T23:02:39.937Z,14.77
2023-04-18T23:05:47.204Z,14.91
2023-04-18T23:08:56.197Z,14.82
2023-04-18T23:12:00.924Z,14.59
2023-04-18T23:15:20.323Z,14.60
2023-04-18T23:18:30.451Z,14.75
2023-04-18T23:21:38.096Z,14.74
2023-04-18T23:24:45.106Z,14.76
2023-04-18T23:27:52.290Z,14.95
2023-04-18T23:30:59.069Z,14.84
2023-04-18T23:34:04.272Z,14.66
2023-04-18T23:37:06.588Z,14.61
2023-04-18T23:40:12.696Z,14.81
2023-04-18T23:46:58.341Z,14.73
2023-04-18T23:50:10.794Z,14.76
2023-04-18T23:53:16.593Z,14.78
2023-04-18T23:56:19.563Z,14.94
2023-04-18T23:59:25.163Z,14.86
